Time;durP1;ratioP1;P1;durP2;ratioP2;P2;SDS_P1;SDS_P2;PMS_P1;PMS_P2;Temp;Humidity;BMP_temperature;BMP_pressure;BME280_temperature;BME280_humidity;BME280_pressure;Samples;Min_cycle;Max_cycle;Signal;HPM_P1;HPM_P2
2021/03/01 00:00:36;;;;;;;0.20;0.10;;;;;;;0.20;100.00;101944.84;5048021;28;20557;-55
2021/03/01 00:03:02;;;;;;;0.30;0.20;;;;;;;0.39;100.00;101940.31;5047581;28;20443;-55
2021/03/01 00:05:29;;;;;;;0.20;0.10;;;;;;;0.78;100.00;101946.22;5040021;28;20584;-55
2021/03/01 00:07:56;;;;;;;0.20;0.20;;;;;;;0.51;100.00;101939.09;5041856;28;20451;-54
2021/03/01 00:10:24;;;;;;;1.20;1.20;;;;;;;0.33;100.00;101940.09;5048352;28;20525;-54
2021/03/01 00:12:51;;;;;;;0.20;0.10;;;;;;;0.27;100.00;101946.88;5047878;28;20853;-54
2021/03/01 00:15:19;;;;;;;0.20;0.10;;;;;;;0.70;100.00;101940.69;5041270;28;20471;-54
2021/03/01 00:17:45;;;;;;;0.20;0.10;;;;;;;0.42;100.00;101950.94;5041190;28;20451;-55
2021/03/01 00:20:14;;;;;;;0.30;0.20;;;;;;;0.25;100.00;101947.63;5048292;28;20545;-54
2021/03/01 00:22:41;;;;;;;0.30;0.20;;;;;;;0.32;100.00;101954.91;5048083;28;20450;-52
2021/03/01 00:25:08;;;;;;;0.20;0.20;;;;;;;0.32;100.00;101956.63;5041436;28;20993;-55
2021/03/01 00:27:34;;;;;;;0.80;0.80;;;;;;;0.45;100.00;101951.94;5040883;28;20514;-55
2021/03/01 00:30:00;;;;;;;0.20;0.17;;;;;;;0.08;100.00;101954.81;5047266;28;20443;-54
2021/03/01 00:32:26;;;;;;;0.20;0.10;;;;;;;0.36;100.00;101958.53;5046657;28;20508;-55
2021/03/01 00:34:56;;;;;;;0.20;0.20;;;;;;;-0.07;100.00;101954.19;5041335;28;20450;-54
2021/03/01 00:37:22;;;;;;;0.20;0.10;;;;;;;-0.08;100.00;101958.50;5040254;28;20456;-54
2021/03/01 00:39:48;;;;;;;0.20;0.10;;;;;;;-0.04;100.00;101951.69;5042441;28;20494;-55
2021/03/01 00:42:14;;;;;;;0.20;0.10;;;;;;;-0.21;100.00;101951.00;5040560;28;20452;-55
2021/03/01 00:44:41;;;;;;;0.20;0.10;;;;;;;-0.09;100.00;101943.66;5045959;28;20467;-55
2021/03/01 00:47:07;;;;;;;0.30;0.30;;;;;;;-0.38;100.00;101945.06;5049732;22;20591;-53
2021/03/01 00:49:33;;;;;;;0.20;0.10;;;;;;;-0.31;100.00;101941.88;5053867;28;20455;-53
2021/03/01 00:52:00;;;;;;;0.20;0.10;;;;;;;-0.42;100.00;101945.75;5038349;28;20506;-53
2021/03/01 00:54:26;;;;;;;0.20;0.10;;;;;;;-0.39;100.00;101942.38;5042268;28;20450;-53
2021/03/01 00:56:52;;;;;;;0.20;0.10;;;;;;;-0.67;100.00;101943.81;5052423;28;21052;-53
2021/03/01 00:59:18;;;;;;;0.20;0.10;;;;;;;-0.42;100.00;101945.75;5041384;28;20989;-53
2021/03/01 01:01:44;;;;;;;0.20;0.20;;;;;;;-0.41;100.00;101939.72;5040341;28;20932;-53
2021/03/01 01:04:10;;;;;;;0.20;0.10;;;;;;;-0.47;100.00;101944.66;5045719;28;20452;-53
2021/03/01 01:06:37;;;;;;;0.37;0.37;;;;;;;-0.58;100.00;101951.13;5045823;28;20466;-53
2021/03/01 01:09:04;;;;;;;0.20;0.20;;;;;;;-0.16;100.00;101944.22;5030235;28;20557;-53
2021/03/01 01:11:30;;;;;;;0.20;0.10;;;;;;;-0.49;100.00;101942.81;5039897;28;20475;-53
2021/03/01 01:13:56;;;;;;;0.20;0.10;;;;;;;-0.70;100.00;101942.75;5045220;28;20578;-53
2021/03/01 01:16:22;;;;;;;0.20;0.10;;;;;;;-0.68;100.00;101946.38;5048623;28;20475;-53
2021/03/01 01:18:49;;;;;;;0.20;0.20;;;;;;;-0.62;100.00;101936.19;5045018;28;20451;-53
2021/03/01 01:21:15;;;;;;;0.20;0.20;;;;;;;-0.73;100.00;101940.03;5028002;28;21218;-53
2021/03/01 01:23:41;;;;;;;0.20;0.10;;;;;;;-0.57;100.00;101936.34;5044808;28;20447;-53
2021/03/01 01:26:08;;;;;;;0.20;0.10;;;;;;;-0.66;100.00;101939.50;5046902;28;20478;-53
2021/03/01 01:28:35;;;;;;;0.20;0.10;;;;;;;-0.76;100.00;101934.69;5042246;28;21001;-53
2021/03/01 01:31:02;;;;;;;0.20;0.10;;;;;;;-0.56;100.00;101932.91;5040570;28;20478;-53
2021/03/01 01:33:28;;;;;;;2.00;1.90;;;;;;;-0.84;100.00;101936.06;5043393;28;20451;-53
2021/03/01 01:35:54;;;;;;;0.20;0.10;;;;;;;-0.90;100.00;101929.75;5049145;28;20470;-53
2021/03/01 01:38:20;;;;;;;0.20;0.10;;;;;;;-0.75;100.00;101926.03;5034622;28;20499;-53
2021/03/01 01:40:46;;;;;;;0.20;0.10;;;;;;;-0.79;100.00;101924.13;5042951;28;20495;-53
2021/03/01 01:43:13;;;;;;;0.20;0.10;;;;;;;-0.75;100.00;101926.03;5042688;28;20451;-53
2021/03/01 01:45:39;;;;;;;1.70;1.60;;;;;;;-0.95;100.00;101914.72;5048467;28;20471;-53
2021/03/01 01:48:06;;;;;;;0.20;0.10;;;;;;;-0.84;100.00;101917.78;5053240;28;20443;-53
2021/03/01 01:50:33;;;;;;;0.20;0.10;;;;;;;-0.92;100.00;101920.97;5036357;28;20506;-53
2021/03/01 01:53:00;;;;;;;0.20;0.10;;;;;;;-0.97;100.00;101917.25;5043210;28;20485;-53
2021/03/01 01:55:28;;;;;;;0.20;0.10;;;;;;;-0.93;100.00;101916.56;5038977;28;20872;-53
2021/03/01 01:57:54;;;;;;;0.20;0.10;;;;;;;-0.97;100.00;101917.25;5042630;28;20514;-53
2021/03/01 02:03:31;;;;;;;0.20;0.10;;;;;;;-1.15;100.00;101906.00;5044919;28;20534;-53
2021/03/01 02:06:03;;;;;;;0.20;0.10;;;;;;;-1.22;100.00;101904.84;5042980;28;20913;-53
2021/03/01 02:08:43;;;;;;;0.20;0.10;;;;;;;-1.16;100.00;101909.44;5046405;28;20447;-53
2021/03/01 02:11:56;;;;;;;0.20;0.10;;;;;;;-1.11;100.00;101918.34;5045029;28;20446;-53
2021/03/01 02:14:33;;;;;;;0.20;0.10;;;;;;;-1.15;100.00;101908.59;5004658;28;21019;-53
2021/03/01 02:17:00;;;;;;;0.20;0.10;;;;;;;-1.20;100.00;101913.63;5028606;28;20462;-53
2021/03/01 02:19:27;;;;;;;0.30;0.20;;;;;;;-1.25;100.00;101915.09;5039406;28;20499;-53
2021/03/01 02:21:54;;;;;;;0.50;0.50;;;;;;;-1.24;100.00;101910.78;5038615;28;20809;-53
2021/03/01 02:24:31;;;;;;;0.20;0.10;;;;;;;-1.27;100.00;101908.94;5045885;28;20508;-53
2021/03/01 02:26:58;;;;;;;0.20;0.10;;;;;;;-1.31;100.00;101907.03;5032269;28;20467;-53
2021/03/01 02:29:25;;;;;;;0.20;0.10;;;;;;;-1.26;100.00;101912.44;5035434;28;20486;-53
2021/03/01 02:31:57;;;;;;;6.40;2.20;;;;;;;-1.28;100.00;101912.38;5042204;28;20452;-53
2021/03/01 02:34:29;;;;;;;0.20;0.10;;;;;;;-1.39;100.00;101904.88;5045603;28;20444;-53
2021/03/01 02:36:58;;;;;;;0.20;0.10;;;;;;;-1.23;100.00;101902.16;5043891;28;20466;-53
2021/03/01 02:39:27;;;;;;;0.20;0.10;;;;;;;-1.40;100.00;101908.31;5037903;28;20490;-53
2021/03/01 02:41:54;;;;;;;0.20;0.13;;;;;;;-1.39;100.00;101907.47;5040431;28;20456;-53
2021/03/01 02:44:21;;;;;;;0.20;0.10;;;;;;;-1.40;100.00;101905.69;5045636;28;20502;-53
2021/03/01 02:46:49;;;;;;;0.30;0.10;;;;;;;-1.45;100.00;101907.22;5043932;28;20479;-53
2021/03/01 02:49:16;;;;;;;0.20;0.10;;;;;;;-1.49;100.00;101903.59;5033341;28;20444;-53
2021/03/01 02:51:47;;;;;;;0.20;0.10;;;;;;;-1.51;100.00;101907.81;5033100;28;20482;-53
2021/03/01 02:54:15;;;;;;;0.20;0.10;;;;;;;-1.57;100.00;101907.53;5032056;28;20455;-53
2021/03/01 02:56:42;;;;;;;0.20;0.10;;;;;;;-1.60;100.00;101905.69;5035094;28;20475;-53
2021/03/01 02:59:09;;;;;;;0.20;0.10;;;;;;;-1.44;100.00;101904.69;5055957;28;20555;-53
2021/03/01 03:01:37;;;;;;;0.20;0.10;;;;;;;-1.52;100.00;101895.59;5042592;28;20459;-53
2021/03/01 03:04:06;;;;;;;0.20;0.10;;;;;;;-1.55;100.00;101900.69;5023129;28;20934;-53
2021/03/01 03:06:34;;;;;;;0.20;0.13;;;;;;;-1.64;100.00;101895.94;5049056;28;20525;-53
2021/03/01 03:09:01;;;;;;;1.17;0.80;;;;;;;-1.62;100.00;101896.03;5036082;28;20514;-53
2021/03/01 03:11:29;;;;;;;0.20;0.10;;;;;;;-1.66;100.00;101891.47;5036754;28;20443;-53
2021/03/01 03:13:57;;;;;;;0.20;0.10;;;;;;;-1.47;100.00;101893.22;5047715;28;20455;-53
2021/03/01 03:16:25;;;;;;;0.20;0.10;;;;;;;-1.57;100.00;101894.50;5048973;28;21056;-53
2021/03/01 03:18:56;;;;;;;0.20;0.10;;;;;;;-1.70;100.00;101903.47;5044455;28;20455;-53
2021/03/01 03:21:23;;;;;;;0.30;0.17;;;;;;;-1.67;100.00;101894.88;5053504;28;20936;-53
2021/03/01 03:23:49;;;;;;;0.20;0.10;;;;;;;-1.59;100.00;101902.25;5044795;28;20951;-53
2021/03/01 03:26:16;;;;;;;0.20;0.10;;;;;;;-1.71;100.00;101895.56;5038275;28;20476;-53
2021/03/01 03:28:45;;;;;;;0.20;0.10;;;;;;;-1.80;100.00;101889.09;5044531;28;20454;-53
2021/03/01 03:31:12;;;;;;;0.20;0.10;;;;;;;-1.82;100.00;101897.66;5041859;28;20828;-53
2021/03/01 03:33:39;;;;;;;0.20;0.10;;;;;;;-1.71;100.00;101893.88;5054006;28;20451;-53
2021/03/01 03:36:07;;;;;;;0.20;0.10;;;;;;;-1.95;100.00;101893.59;5052035;28;20503;-53
2021/03/01 03:38:46;;;;;;;0.20;0.10;;;;;;;-1.84;100.00;101894.09;5035493;28;20443;-53
2021/03/01 03:41:14;;;;;;;0.20;0.10;;;;;;;-1.69;100.00;101892.22;5048834;28;20541;-53
2021/03/01 03:43:42;;;;;;;0.20;0.10;;;;;;;-1.75;100.00;101891.94;5035374;28;20448;-53
2021/03/01 03:46:11;;;;;;;0.20;0.10;;;;;;;-1.85;100.00;101889.72;5022283;28;20498;-53
2021/03/01 03:48:41;;;;;;;0.20;0.10;;;;;;;-1.84;100.00;101889.78;5049060;28;20974;-53
2021/03/01 03:51:10;;;;;;;0.20;0.10;;;;;;;-1.86;100.00;101891.44;5040184;28;20522;-52
2021/03/01 03:53:48;;;;;;;0.20;0.10;;;;;;;-1.91;100.00;101897.25;5041865;28;20454;-53
2021/03/01 03:56:16;;;;;;;0.20;0.10;;;;;;;-2.04;100.00;101897.50;5015274;28;20514;-53
2021/03/01 03:58:48;;;;;;;0.20;0.20;;;;;;;-1.97;100.00;101891.72;5044815;28;20458;-53
2021/03/01 04:01:18;;;;;;;0.20;0.10;;;;;;;-2.04;100.00;101900.09;5035309;28;20905;-53
2021/03/01 04:03:46;;;;;;;0.20;0.10;;;;;;;-2.02;100.00;101894.13;5038883;28;20453;-52
2021/03/01 04:06:16;;;;;;;0.20;0.10;;;;;;;-1.79;100.00;101897.81;5043495;28;20471;-53
2021/03/01 04:08:46;;;;;;;0.20;0.10;;;;;;;-1.71;100.00;101904.28;5046733;28;20447;-53
2021/03/01 04:11:13;;;;;;;2.67;2.53;;;;;;;-1.92;100.00;101887.63;5046726;28;20450;-53
2021/03/01 04:13:44;;;;;;;0.20;0.10;;;;;;;-2.01;100.00;101893.31;5041479;28;20481;-53
2021/03/01 04:16:12;;;;;;;0.20;0.10;;;;;;;-2.05;100.00;101887.91;5041223;28;20468;-52
2021/03/01 04:18:41;;;;;;;0.97;0.97;;;;;;;-2.02;100.00;101893.25;5041469;28;20508;-53
2021/03/01 04:21:10;;;;;;;0.20;0.10;;;;;;;-2.06;100.00;101888.69;5046345;28;20491;-53
2021/03/01 04:23:37;;;;;;;0.60;0.60;;;;;;;-2.05;100.00;101887.91;5054247;28;20443;-53
2021/03/01 04:26:05;;;;;;;0.20;0.10;;;;;;;-1.96;100.00;101893.53;5053210;28;20471;-53
2021/03/01 04:28:32;;;;;;;0.20;0.10;;;;;;;-2.08;100.00;101897.31;5034595;28;20481;-52
2021/03/01 04:31:04;;;;;;;0.20;0.10;;;;;;;-2.03;100.00;101892.34;5034377;28;20863;-51
2021/03/01 04:33:33;;;;;;;0.20;0.10;;;;;;;-2.06;100.00;101888.69;5043044;28;20451;-52
2021/03/01 04:36:00;;;;;;;0.20;0.10;;;;;;;-2.03;100.00;101887.13;5051087;28;20471;-52
2021/03/01 04:38:27;;;;;;;0.20;0.10;;;;;;;-2.10;100.00;101885.94;5034352;28;20490;-51
2021/03/01 04:40:53;;;;;;;0.20;0.10;;;;;;;-2.11;100.00;101896.28;5051641;28;20495;-51
2021/03/01 04:43:21;;;;;;;0.20;0.10;;;;;;;-2.23;100.00;101893.97;5043846;28;20472;-51
2021/03/01 04:45:51;;;;;;;0.20;0.10;;;;;;;-2.31;100.00;101886.63;5047004;28;20536;-52
2021/03/01 04:48:18;;;;;;;0.20;0.10;;;;;;;-2.21;100.00;101887.13;5031195;28;20456;-51
2021/03/01 04:50:49;;;;;;;0.20;0.10;;;;;;;-2.09;100.00;101887.72;5032460;28;20452;-51
2021/03/01 04:53:16;;;;;;;0.20;0.10;;;;;;;-2.16;100.00;101888.25;5046161;28;21077;-51
2021/03/01 04:55:44;;;;;;;0.20;0.10;;;;;;;-2.12;100.00;101884.97;5048063;28;20521;-51
2021/03/01 04:58:14;;;;;;;0.20;0.10;;;;;;;-2.16;100.00;101887.38;5021481;28;20448;-51
2021/03/01 05:00:41;;;;;;;1.43;1.43;;;;;;;-2.24;100.00;101897.41;5033260;28;20491;-51
2021/03/01 05:03:08;;;;;;;0.20;0.10;;;;;;;-2.20;100.00;101899.31;5046628;28;20451;-51
2021/03/01 05:05:34;;;;;;;0.20;0.10;;;;;;;-2.01;100.00;101892.41;5053434;28;20454;-51
2021/03/01 05:08:04;;;;;;;0.20;0.10;;;;;;;-2.10;100.00;101893.75;5040476;28;20455;-51
2021/03/01 05:10:31;;;;;;;1.33;1.33;;;;;;;-2.34;100.00;101891.66;5027394;28;20493;-51
2021/03/01 05:12:58;;;;;;;0.30;0.30;;;;;;;-2.37;100.00;101902.81;5040058;28;20840;-51
2021/03/01 05:15:24;;;;;;;0.20;0.10;;;;;;;-2.36;100.00;101886.38;5039081;28;20449;-51
2021/03/01 05:17:51;;;;;;;0.20;0.10;;;;;;;-2.33;100.00;101896.97;5027071;28;20455;-51
2021/03/01 05:20:18;;;;;;;0.20;0.10;;;;;;;-2.50;100.00;101895.22;5033273;28;20567;-51
2021/03/01 05:22:44;;;;;;;0.20;0.10;;;;;;;-2.53;100.00;101901.16;5032634;28;20895;-51
2021/03/01 05:25:11;;;;;;;0.20;0.10;;;;;;;-2.46;100.00;101895.47;5045939;28;20447;-51
2021/03/01 05:27:37;;;;;;;0.20;0.10;;;;;;;-2.38;100.00;101911.44;5033865;28;20984;-49
2021/03/01 05:30:07;;;;;;;0.20;0.10;;;;;;;-2.29;100.00;101904.09;5045870;28;20447;-49
2021/03/01 05:32:33;;;;;;;0.20;0.20;;;;;;;-2.24;100.00;101901.72;5045098;28;20447;-50
2021/03/01 05:35:00;;;;;;;0.20;0.10;;;;;;;-2.41;100.00;101913.91;5021172;28;20841;-50
2021/03/01 05:37:27;;;;;;;0.20;0.10;;;;;;;-2.27;100.00;101911.97;5032936;28;20883;-50
2021/03/01 05:39:53;;;;;;;0.20;0.10;;;;;;;-2.29;100.00;101911.91;5033069;28;20833;-50
2021/03/01 05:42:20;;;;;;;0.20;0.10;;;;;;;-2.15;100.00;101918.69;5029500;28;20530;-50
2021/03/01 05:44:46;;;;;;;0.20;0.10;;;;;;;-2.35;100.00;101915.91;5042942;28;20504;-49
2021/03/01 05:47:13;;;;;;;0.20;0.10;;;;;;;-2.32;100.00;101924.78;5034989;28;20483;-50
2021/03/01 05:49:41;;;;;;;0.20;0.10;;;;;;;-2.32;100.00;101919.59;5043422;28;20443;-49
2021/03/01 05:52:09;;;;;;;0.20;0.10;;;;;;;-2.08;100.00;101918.16;5035644;28;20458;-50
2021/03/01 05:54:37;;;;;;;0.20;0.10;;;;;;;-2.48;100.00;101917.88;5042503;28;20444;-49
2021/03/01 05:57:07;;;;;;;0.20;0.10;;;;;;;-2.27;100.00;101915.47;5045730;28;20475;-50
2021/03/01 05:59:33;;;;;;;0.20;0.10;;;;;;;-2.29;100.00;101909.31;5032686;28;20444;-49
2021/03/01 06:02:00;;;;;;;0.20;0.10;;;;;;;-1.98;100.00;101914.28;5032578;28;20487;-50
2021/03/01 06:04:27;;;;;;;0.33;0.33;;;;;;;-2.12;100.00;101912.72;5043829;28;20458;-50
2021/03/01 06:06:54;;;;;;;0.30;0.10;;;;;;;-2.10;100.00;101911.09;5021232;28;21027;-49
2021/03/01 06:09:20;;;;;;;0.20;0.10;;;;;;;-1.95;100.00;101919.63;5032590;28;20505;-50
2021/03/01 06:11:47;;;;;;;0.20;0.10;;;;;;;-2.01;100.00;101921.97;5037118;28;20454;-50
2021/03/01 06:14:15;;;;;;;0.20;0.10;;;;;;;-2.12;100.00;101920.53;5052420;28;20453;-49
2021/03/01 06:17:11;;;;;;;0.20;0.10;;;;;;;-1.83;100.00;101920.22;5038926;28;20898;-50
2021/03/01 06:19:48;;;;;;;0.20;0.10;;;;;;;-1.93;100.00;101927.53;5038796;28;20444;-50
2021/03/01 06:22:15;;;;;;;0.20;0.10;;;;;;;-2.02;100.00;101925.41;5041463;28;20447;-49
2021/03/01 06:24:42;;;;;;;0.20;0.10;;;;;;;-1.77;100.00;101924.88;5036356;28;20457;-50
2021/03/01 06:27:11;;;;;;;0.20;0.10;;;;;;;-1.99;100.00;101930.75;5051905;28;20466;-49
2021/03/01 06:30:10;;;;;;;0.20;0.10;;;;;;;-1.68;100.00;101929.59;5038521;28;20493;-50
2021/03/01 06:32:36;;;;;;;0.20;0.10;;;;;;;-1.71;100.00;101926.84;5047259;28;20454;-50
2021/03/01 06:35:23;;;;;;;0.20;0.10;;;;;;;-1.77;100.00;101930.06;5021722;28;20444;-50
2021/03/01 06:38:17;;;;;;;0.20;0.10;;;;;;;-1.82;100.00;101924.63;5045357;28;20447;-50
2021/03/01 06:41:04;;;;;;;0.20;0.10;;;;;;;-1.73;100.00;101937.22;5043259;28;20480;-50
2021/03/01 06:43:30;;;;;;;0.20;0.10;;;;;;;-1.54;100.00;101928.53;5016721;28;20505;-50
2021/03/01 06:46:13;;;;;;;0.20;0.10;;;;;;;-1.93;100.00;101925.81;5032609;28;20829;-48
2021/03/01 06:48:41;;;;;;;0.20;0.10;;;;;;;-1.80;100.00;101933.41;5045923;28;20450;-50
2021/03/01 06:51:08;;;;;;;0.20;0.10;;;;;;;-1.65;100.00;101933.22;5039654;28;20501;-48
2021/03/01 06:53:36;;;;;;;0.20;0.10;;;;;;;-1.56;100.00;101933.69;5038134;28;20459;-48
2021/03/01 06:56:03;;;;;;;0.20;0.10;;;;;;;-1.47;100.00;101938.44;5044350;28;20469;-49
2021/03/01 06:58:40;;;;;;;0.20;0.10;;;;;;;-1.41;100.00;101937.81;5045345;28;20448;-49
2021/03/01 07:01:11;;;;;;;0.20;0.10;;;;;;;-1.39;100.00;101938.78;5041366;28;20434;-48
2021/03/01 07:03:38;;;;;;;0.20;0.10;;;;;;;-1.21;100.00;101944.88;5038499;28;20456;-49
2021/03/01 07:06:06;;;;;;;0.90;0.90;;;;;;;-1.39;100.00;101941.38;5041760;28;20475;-49
2021/03/01 07:08:42;;;;;;;0.20;0.10;;;;;;;-1.10;100.00;101954.03;5045092;28;20444;-49
2021/03/01 07:11:36;;;;;;;0.20;0.20;;;;;;;-1.05;100.00;101957.78;5043626;28;20485;-49
2021/03/01 07:14:06;;;;;;;0.20;0.10;;;;;;;-0.95;100.00;101954.75;5043110;28;20620;-49
2021/03/01 07:16:41;;;;;;;0.20;0.10;;;;;;;-0.91;100.00;101959.28;5043416;28;20526;-49
2021/03/01 07:19:17;;;;;;;0.20;0.10;;;;;;;-0.76;100.00;101958.19;5042946;28;20450;-49
2021/03/01 07:21:47;;;;;;;0.20;0.10;;;;;;;-0.57;100.00;101955.53;5038009;28;20508;-49
2021/03/01 07:24:18;;;;;;;0.20;0.10;;;;;;;-0.57;100.00;101959.84;5038741;28;20945;-49
2021/03/01 07:26:46;;;;;;;0.20;0.10;;;;;;;-0.43;100.00;101956.13;5025741;28;20842;-49
2021/03/01 07:29:17;;;;;;;0.20;0.10;;;;;;;-0.49;100.00;101951.53;5038179;28;20454;-49
2021/03/01 07:32:06;;;;;;;0.20;0.10;;;;;;;-0.32;100.00;101957.47;5044123;28;20490;-49
2021/03/01 07:34:34;;;;;;;0.20;0.10;;;;;;;-0.17;100.00;101958.13;5044962;28;20452;-48
2021/03/01 07:37:01;;;;;;;0.20;0.10;;;;;;;-0.09;100.00;101956.72;5031723;28;20988;-49
2021/03/01 07:39:28;;;;;;;0.20;0.10;;;;;;;0.01;100.00;101960.63;5031408;28;20498;-49
2021/03/01 07:41:56;;;;;;;0.30;0.20;;;;;;;0.08;100.00;101959.13;5044942;28;20450;-49
2021/03/01 07:44:24;;;;;;;0.20;0.10;;;;;;;0.21;100.00;101962.31;5041905;28;20481;-49
2021/03/01 07:46:51;;;;;;;0.20;0.10;;;;;;;0.34;100.00;101963.69;5050000;28;20478;-49
2021/03/01 07:49:48;;;;;;;0.20;0.10;;;;;;;0.58;100.00;101967.28;5041224;28;20454;-50
2021/03/01 07:52:17;;;;;;;0.20;0.10;;;;;;;0.76;100.00;101964.47;5019766;28;21023;-49
2021/03/01 07:55:01;;;;;;;0.20;0.10;;;;;;;0.75;100.00;101957.47;5044292;28;20452;-49
2021/03/01 07:57:29;;;;;;;0.20;0.10;;;;;;;0.74;100.00;101957.41;5048287;28;20521;-49
2021/03/01 07:59:57;;;;;;;0.20;0.10;;;;;;;0.91;100.00;101963.25;5048137;28;20940;-49
2021/03/01 08:02:33;;;;;;;0.20;0.20;;;;;;;1.05;100.00;101957.72;5042082;28;20501;-49
2021/03/01 08:05:19;;;;;;;0.20;0.10;;;;;;;1.22;100.00;101960.03;5041063;28;20946;-48
2021/03/01 08:07:45;;;;;;;0.20;0.10;;;;;;;1.33;100.00;101967.47;5043051;28;20443;-48
2021/03/01 08:10:17;;;;;;;0.20;0.10;;;;;;;1.44;100.00;101963.50;5047600;28;20541;-49
2021/03/01 08:12:46;;;;;;;0.20;0.10;;;;;;;1.53;100.00;101965.56;5046834;28;20484;-49
2021/03/01 08:15:20;;;;;;;0.30;0.20;;;;;;;1.71;100.00;101958.31;5041408;28;20455;-49
2021/03/01 08:17:49;;;;;;;0.20;0.10;;;;;;;1.92;100.00;101952.94;5040988;28;20924;-50
2021/03/01 08:20:15;;;;;;;0.20;0.10;;;;;;;1.94;100.00;101953.88;5047072;28;20936;-49
2021/03/01 08:23:03;;;;;;;0.20;0.13;;;;;;;2.11;100.00;101961.41;5048014;28;20499;-50
2021/03/01 08:25:42;;;;;;;1.70;1.70;;;;;;;2.20;100.00;101964.34;5045052;28;20492;-49
2021/03/01 08:28:32;;;;;;;0.20;0.13;;;;;;;2.39;100.00;101961.44;5040977;28;20447;-50
2021/03/01 08:31:21;;;;;;;0.20;0.20;;;;;;;2.22;100.00;101960.03;5037410;28;20495;-49
2021/03/01 08:33:48;;;;;;;0.20;0.10;;;;;;;2.63;100.00;101956.97;5043035;28;20467;-50
2021/03/01 08:36:25;;;;;;;0.30;0.27;;;;;;;2.74;100.00;101951.13;5047438;28;21041;-49
2021/03/01 08:38:54;;;;;;;0.20;0.10;;;;;;;2.79;100.00;101952.16;5034661;28;20444;-50
2021/03/01 08:41:29;;;;;;;0.20;0.20;;;;;;;2.92;100.00;101955.19;5046923;28;20800;-50
2021/03/01 08:43:58;;;;;;;6.43;3.40;;;;;;;3.11;100.00;101953.97;5047667;28;20493;-50
2021/03/01 08:46:25;;;;;;;0.20;0.20;;;;;;;3.40;100.00;101952.16;5042698;28;20483;-50
2021/03/01 08:48:56;;;;;;;0.30;0.10;;;;;;;3.65;100.00;101952.84;5040256;28;20820;-50
2021/03/01 08:51:23;;;;;;;0.20;0.10;;;;;;;3.84;100.00;101941.97;5044825;28;20492;-50
2021/03/01 08:53:53;;;;;;;0.77;0.77;;;;;;;4.08;100.00;101952.19;5046662;28;20454;-50
2021/03/01 08:56:26;;;;;;;0.20;0.10;;;;;;;4.36;100.00;101953.75;5043404;28;20475;-50
2021/03/01 08:58:55;;;;;;;0.20;0.20;;;;;;;4.81;100.00;101950.38;5039303;28;20454;-51
2021/03/01 09:01:22;;;;;;;0.20;0.10;;;;;;;5.39;100.00;101955.09;5042652;28;20451;-51
2021/03/01 09:03:49;;;;;;;0.20;0.10;;;;;;;5.66;98.63;101952.09;5038068;28;20454;-50
2021/03/01 09:06:17;;;;;;;0.30;0.20;;;;;;;5.67;98.04;101945.97;5042534;28;20525;-50
2021/03/01 09:08:54;;;;;;;0.20;0.10;;;;;;;5.75;97.81;101939.03;5038186;28;20508;-51
2021/03/01 09:11:25;;;;;;;0.30;0.20;;;;;;;5.89;96.76;101939.28;5040615;28;20495;-50
2021/03/01 09:14:00;;;;;;;0.30;0.10;;;;;;;6.00;96.81;101936.88;5027865;28;20451;-50
2021/03/01 09:16:28;;;;;;;0.30;0.10;;;;;;;6.21;96.48;101940.75;5039544;28;20471;-50
2021/03/01 09:19:03;;;;;;;0.30;0.20;;;;;;;6.24;95.56;101942.56;5043998;28;20452;-50
2021/03/01 09:21:30;;;;;;;0.30;0.17;;;;;;;6.22;95.53;101944.28;5046306;28;20452;-50
2021/03/01 09:23:57;;;;;;;0.27;0.17;;;;;;;6.47;94.34;101943.81;5042976;28;21013;-50
2021/03/01 09:26:29;;;;;;;2.57;1.30;;;;;;;6.53;94.85;101943.00;5039997;28;20467;-51
2021/03/01 09:29:03;;;;;;;0.30;0.20;;;;;;;6.47;94.37;101941.16;5032598;28;20457;-50
2021/03/01 09:31:31;;;;;;;0.30;0.20;;;;;;;6.59;94.62;101939.56;5037009;28;20490;-50
2021/03/01 09:33:58;;;;;;;0.30;0.20;;;;;;;6.61;93.64;101930.81;5028448;28;20536;-50
2021/03/01 09:36:28;;;;;;;0.30;0.20;;;;;;;6.73;93.57;101930.97;5045825;28;20479;-50
2021/03/01 09:38:54;;;;;;;0.30;0.20;;;;;;;6.70;92.55;101932.66;5033656;28;20949;-50
2021/03/01 09:41:23;;;;;;;0.30;0.20;;;;;;;6.79;91.73;101928.41;5045581;28;20471;-50
2021/03/01 09:43:50;;;;;;;0.30;0.20;;;;;;;6.85;92.56;101922.28;5034001;28;20452;-50
2021/03/01 09:46:17;;;;;;;0.80;0.70;;;;;;;7.00;92.51;101925.16;5040085;28;20537;-50
2021/03/01 09:48:45;;;;;;;0.30;0.20;;;;;;;6.89;91.96;101918.84;5046464;28;20451;-50
2021/03/01 09:51:12;;;;;;;0.30;0.20;;;;;;;6.92;91.32;101912.69;5039682;28;21004;-51
2021/03/01 09:53:39;;;;;;;0.30;0.10;;;;;;;7.10;91.63;101920.84;5039324;28;20455;-50
2021/03/01 09:56:05;;;;;;;0.30;0.10;;;;;;;7.27;91.04;101929.00;5044491;28;20482;-50
2021/03/01 09:58:33;;;;;;;0.30;0.20;;;;;;;7.38;90.37;101920.28;5045816;28;20508;-50
2021/03/01 10:01:17;;;;;;;0.30;0.10;;;;;;;7.33;90.47;101929.06;5041610;28;20871;-50
2021/03/01 10:03:50;;;;;;;0.30;0.20;;;;;;;7.29;88.97;101932.53;5039301;28;20457;-50
2021/03/01 10:06:28;;;;;;;0.30;0.20;;;;;;;7.45;89.34;101920.38;5039149;28;20991;-50
2021/03/01 10:09:08;;;;;;;0.30;0.10;;;;;;;7.65;89.37;101924.09;5027646;28;20855;-50
2021/03/01 10:11:34;;;;;;;0.30;0.20;;;;;;;7.58;88.50;101919.63;5038758;28;21061;-50
2021/03/01 10:14:11;;;;;;;0.30;0.20;;;;;;;7.71;88.52;101921.53;5043346;28;20456;-50
2021/03/01 10:16:41;;;;;;;0.30;0.20;;;;;;;7.67;87.68;101919.69;5045802;28;20460;-50
2021/03/01 10:19:23;;;;;;;0.30;0.17;;;;;;;7.75;88.91;101917.13;5043657;28;20963;-50
2021/03/01 10:21:50;;;;;;;0.30;0.20;;;;;;;7.83;87.58;101905.75;5040726;28;20439;-50
2021/03/01 10:24:18;;;;;;;0.30;0.20;;;;;;;7.90;87.08;101919.91;5038989;28;20495;-51
2021/03/01 10:27:00;;;;;;;0.30;0.20;;;;;;;7.92;86.28;101912.88;5045284;28;20582;-50
2021/03/01 10:29:39;;;;;;;0.30;0.20;;;;;;;8.19;86.87;101905.13;5045674;28;20454;-51
2021/03/01 10:32:17;;;;;;;0.30;0.20;;;;;;;8.44;86.86;101905.34;5043112;28;20500;-51
2021/03/01 10:34:43;;;;;;;0.30;0.20;;;;;;;8.40;87.00;101909.75;5038665;28;20450;-51
2021/03/01 10:37:10;;;;;;;0.30;0.20;;;;;;;8.46;85.60;101915.06;5039567;28;20482;-50
2021/03/01 10:39:46;;;;;;;0.30;0.20;;;;;;;8.50;85.32;101905.41;5038573;28;20466;-50
2021/03/01 10:42:20;;;;;;;0.30;0.20;;;;;;;8.39;85.15;101900.03;5024309;28;20452;-50
2021/03/01 10:45:00;;;;;;;0.30;0.20;;;;;;;8.32;85.27;101907.00;5040613;28;20447;-50
2021/03/01 10:47:29;;;;;;;0.40;0.30;;;;;;;8.49;84.33;101900.94;5045171;28;20483;-50
2021/03/01 10:49:58;;;;;;;0.30;0.20;;;;;;;8.61;85.29;101899.25;5032301;28;20491;-50
2021/03/01 10:52:26;;;;;;;0.30;0.20;;;;;;;8.67;84.47;101897.53;5045087;28;20936;-50
2021/03/01 10:54:56;;;;;;;0.30;0.20;;;;;;;8.83;84.45;101891.41;5043929;28;20737;-50
2021/03/01 10:57:23;;;;;;;0.30;0.20;;;;;;;8.81;84.31;101895.84;5036958;28;20524;-50
2021/03/01 10:59:51;;;;;;;0.30;0.10;;;;;;;8.72;84.10;101886.06;5039016;28;21067;-51
2021/03/01 11:02:18;;;;;;;0.30;0.20;;;;;;;8.99;84.27;101895.00;5045392;28;20458;-50
2021/03/01 11:04:46;;;;;;;0.30;0.20;;;;;;;9.07;83.80;101899.47;5044894;28;20447;-50
2021/03/01 11:07:12;;;;;;;0.30;0.20;;;;;;;9.18;83.11;101903.06;5038140;28;20481;-50
2021/03/01 11:09:38;;;;;;;0.30;0.17;;;;;;;9.01;80.22;101893.25;5038646;28;20720;-50
2021/03/01 11:12:05;;;;;;;0.70;0.70;;;;;;;9.22;80.12;101884.50;5051359;28;20538;-50
2021/03/01 11:14:32;;;;;;;0.30;0.20;;;;;;;9.12;79.41;101892.41;5038763;28;20447;-50
2021/03/01 11:16:58;;;;;;;0.30;0.20;;;;;;;9.29;79.81;101878.28;5046684;28;20471;-50
2021/03/01 11:19:25;;;;;;;0.30;0.20;;;;;;;9.27;79.03;101874.75;5048751;28;20889;-50
2021/03/01 11:21:52;;;;;;;0.30;0.20;;;;;;;9.55;79.93;101881.88;5049091;28;20448;-50
2021/03/01 11:24:21;;;;;;;0.30;0.20;;;;;;;9.49;78.82;101877.47;5048676;28;20446;-53
2021/03/01 11:26:49;;;;;;;0.30;0.20;;;;;;;9.51;77.77;101874.81;5029859;28;20477;-51
2021/03/01 11:29:16;;;;;;;0.30;0.20;;;;;;;9.74;76.25;101869.53;5042214;28;20863;-51
2021/03/01 11:31:42;;;;;;;0.30;0.20;;;;;;;9.73;77.54;101862.41;5048095;28;20494;-51
2021/03/01 11:34:09;;;;;;;0.30;0.20;;;;;;;9.61;77.58;101860.69;5048821;28;20455;-51
2021/03/01 11:36:36;;;;;;;0.30;0.20;;;;;;;9.81;78.10;101850.03;5042670;28;20550;-51